createdAt,value
2019-02-19T00:04:51.177Z,29.40
2019-02-19T00:09:56.319Z,29.15
2019-02-19T00:15:08.013Z,28.35
2019-02-19T00:20:08.553Z,32.78
2019-02-19T00:25:13.856Z,29.60
2019-02-19T00:30:19.305Z,33.80
2019-02-19T00:35:24.423Z,42.03
2019-02-19T00:40:29.552Z,44.87
2019-02-19T00:45:34.711Z,37.85
2019-02-19T00:50:39.837Z,37.93
2019-02-19T00:55:44.931Z,33.70
2019-02-19T01:00:49.959Z,30.95
2019-02-19T01:05:55.105Z,30.05
2019-02-19T01:11:00.165Z,29.30
2019-02-19T01:16:05.533Z,30.87
2019-02-19T01:21:10.777Z,29.47
2019-02-19T01:26:15.878Z,35.20
2019-02-19T01:31:21.003Z,29.50
2019-02-19T01:36:26.145Z,36.47
2019-02-19T01:41:31.275Z,36.63
2019-02-19T01:46:36.296Z,29.72
2019-02-19T01:51:41.363Z,34.88
2019-02-19T01:56:46.801Z,33.98
2019-02-19T02:01:51.900Z,33.20
2019-02-19T02:06:56.983Z,29.30
2019-02-19T02:12:02.011Z,30.77
2019-02-19T02:17:08.162Z,29.90
2019-02-19T02:22:13.169Z,32.07
2019-02-19T02:27:18.558Z,29.90
2019-02-19T02:32:24.154Z,33.07
2019-02-19T02:37:29.222Z,39.05
2019-02-19T02:42:34.407Z,40.12
2019-02-19T02:47:39.555Z,33.13
2019-02-19T02:52:44.658Z,35.08
2019-02-19T02:57:49.679Z,31.53
2019-02-19T03:02:54.739Z,31.87
2019-02-19T03:08:03.523Z,36.77
2019-02-19T03:13:15.003Z,39.15
2019-02-19T03:18:20.068Z,33.70
2019-02-19T03:23:25.121Z,40.00
2019-02-19T03:28:31.153Z,40.60
2019-02-19T03:33:36.193Z,38.33
2019-02-19T03:38:41.549Z,39.40
2019-02-19T03:43:47.049Z,33.88
2019-02-19T03:48:52.158Z,48.98
2019-02-19T03:53:57.229Z,39.18
2019-02-19T03:59:02.318Z,38.90
2019-02-19T04:04:07.331Z,38.53
2019-02-19T04:09:12.432Z,37.17
2019-02-19T04:14:26.621Z,34.83
2019-02-19T04:19:31.784Z,36.25
2019-02-19T04:24:37.473Z,35.00
2019-02-19T04:29:42.603Z,39.05
2019-02-19T04:34:47.637Z,38.38
2019-02-19T04:39:52.739Z,43.73
2019-02-19T04:44:58.207Z,34.18
2019-02-19T04:50:05.268Z,34.90
2019-02-19T04:55:10.300Z,37.85
2019-02-19T05:00:15.374Z,38.38
2019-02-19T05:05:20.440Z,37.65
2019-02-19T05:10:25.614Z,35.13
2019-02-19T05:15:30.925Z,36.30
2019-02-19T05:20:39.141Z,39.33
2019-02-19T05:25:44.285Z,38.92
2019-02-19T05:30:49.743Z,42.15
2019-02-19T05:35:54.907Z,40.23
2019-02-19T05:40:59.884Z,37.30
2019-02-19T05:46:05.111Z,49.30
2019-02-19T05:51:10.135Z,42.40
2019-02-19T05:56:15.631Z,38.65
2019-02-19T06:01:21.654Z,39.37
2019-02-19T06:06:26.799Z,36.50
2019-02-19T06:11:32.703Z,33.85
2019-02-19T06:16:38.085Z,32.90
2019-02-19T06:21:43.591Z,28.83
2019-02-19T06:26:49.673Z,34.03
2019-02-19T06:31:59.495Z,32.83
2019-02-19T06:37:05.208Z,33.00
2019-02-19T06:42:11.747Z,40.00
2019-02-19T06:47:18.949Z,37.13
2019-02-19T06:52:24.070Z,32.20
2019-02-19T06:57:29.254Z,34.40
2019-02-19T07:02:50.127Z,38.77
2019-02-19T07:07:55.335Z,40.43
2019-02-19T07:13:00.726Z,38.83
2019-02-19T07:18:05.894Z,38.20
2019-02-19T07:23:11.138Z,38.00
2019-02-19T07:28:16.563Z,40.27
2019-02-19T07:33:21.764Z,39.10
2019-02-19T07:38:27.805Z,39.90
2019-02-19T07:43:32.979Z,37.83
2019-02-19T07:48:39.780Z,34.37
2019-02-19T07:53:54.015Z,34.53
2019-02-19T07:58:59.641Z,32.30
2019-02-19T08:04:05.311Z,34.53
2019-02-19T08:09:12.744Z,34.63
2019-02-19T08:14:17.921Z,37.03
2019-02-19T08:19:23.089Z,33.97
2019-02-19T08:24:28.205Z,38.70
2019-02-19T08:29:33.405Z,36.53
2019-02-19T08:34:38.517Z,38.80
2019-02-19T08:39:43.685Z,32.80
2019-02-19T08:44:49.963Z,30.37
2019-02-19T08:49:55.025Z,33.33
2019-02-19T08:55:00.347Z,27.50
2019-02-19T09:00:07.245Z,27.53
2019-02-19T09:05:13.660Z,25.73
2019-02-19T09:10:18.844Z,26.70
2019-02-19T09:15:23.972Z,26.43
2019-02-19T09:20:29.179Z,28.07
2019-02-19T09:25:35.243Z,22.90
2019-02-19T09:30:40.459Z,24.73
2019-02-19T09:35:45.671Z,25.23
2019-02-19T09:40:50.991Z,21.70
2019-02-19T09:45:56.127Z,23.83
2019-02-19T09:51:01.543Z,24.30
2019-02-19T09:56:06.683Z,20.77
2019-02-19T10:01:11.853Z,20.00
2019-02-19T10:06:17.078Z,19.83
2019-02-19T10:11:22.341Z,24.33
2019-02-19T10:16:28.319Z,19.33
2019-02-19T10:21:33.475Z,20.10
2019-02-19T10:26:40.672Z,22.97
2019-02-19T10:31:46.057Z,22.33
2019-02-19T10:36:51.161Z,21.43
2019-02-19T10:41:56.273Z,22.00
2019-02-19T10:47:01.327Z,22.20
2019-02-19T10:52:06.468Z,21.60
2019-02-19T10:57:11.687Z,21.60
2019-02-19T11:02:16.964Z,21.70
2019-02-19T11:07:22.117Z,22.20
2019-02-19T11:12:27.249Z,26.03
2019-02-19T11:17:32.306Z,25.90
2019-02-19T11:22:37.532Z,21.07
2019-02-19T11:27:42.657Z,20.93
2019-02-19T11:32:48.662Z,23.13
2019-02-19T11:37:53.891Z,22.47
2019-02-19T11:42:59.356Z,23.40
2019-02-19T11:48:04.470Z,25.53
2019-02-19T11:53:09.716Z,23.33
2019-02-19T11:58:14.797Z,22.80
2019-02-19T12:03:24.992Z,20.97
2019-02-19T12:08:38.655Z,23.70
2019-02-19T12:13:36.996Z,23.40
2019-02-19T12:18:46.189Z,24.23
2019-02-19T12:23:49.218Z,25.03
2019-02-19T12:28:54.549Z,22.73
2019-02-19T12:34:00.528Z,21.90
2019-02-19T12:39:06.265Z,20.90
2019-02-19T12:44:12.097Z,22.00
2019-02-19T12:49:17.418Z,22.10
2019-02-19T12:54:22.868Z,22.90
2019-02-19T12:59:28.135Z,22.73
2019-02-19T13:04:33.407Z,22.27
2019-02-19T13:09:38.499Z,24.53
2019-02-19T13:14:48.654Z,23.40
2019-02-19T13:19:54.830Z,21.83
2019-02-19T13:24:59.999Z,22.90
2019-02-19T13:30:10.523Z,22.13
2019-02-19T13:35:16.403Z,23.77
2019-02-19T13:40:21.889Z,24.77
2019-02-19T13:45:27.746Z,22.40
2019-02-19T13:50:32.840Z,21.83
2019-02-19T13:55:41.111Z,22.73
2019-02-19T14:00:47.412Z,22.67
2019-02-19T14:05:54.005Z,23.23
2019-02-19T14:10:59.200Z,23.43
2019-02-19T14:16:12.540Z,21.57
2019-02-19T14:21:44.199Z,23.77
2019-02-19T14:27:06.893Z,20.73
2019-02-19T14:32:24.619Z,23.57
2019-02-19T14:37:47.431Z,21.83
2019-02-19T14:43:20.409Z,22.13
2019-02-19T14:48:47.281Z,22.40
2019-02-19T14:54:17.153Z,24.23
2019-02-19T14:59:41.185Z,24.40
2019-02-19T15:05:04.437Z,22.20
2019-02-19T15:10:28.271Z,25.57
2019-02-19T15:15:51.003Z,33.17
2019-02-19T15:21:18.069Z,25.30
2019-02-19T15:26:42.665Z,23.00
2019-02-19T15:32:06.538Z,25.77
2019-02-19T15:37:34.757Z,21.83
2019-02-19T15:42:59.355Z,24.80
2019-02-19T15:48:36.105Z,22.73
2019-02-19T15:54:02.990Z,23.00
2019-02-19T15:59:33.203Z,23.73
2019-02-19T16:04:45.184Z,25.43
2019-02-19T16:10:02.434Z,24.43
2019-02-19T16:15:42.431Z,27.77
2019-02-19T16:20:59.596Z,38.70
2019-02-19T16:26:26.697Z,27.50
2019-02-19T16:31:45.473Z,45.80
2019-02-19T16:37:10.388Z,39.83
2019-02-19T16:42:47.692Z,27.33
2019-02-19T16:48:17.793Z,30.27
2019-02-19T16:53:40.128Z,29.90
2019-02-19T16:58:52.782Z,27.47
2019-02-19T17:04:04.208Z,29.73
2019-02-19T17:09:27.545Z,27.63
2019-02-19T17:14:44.399Z,28.87
2019-02-19T17:20:26.193Z,27.07
2019-02-19T17:25:30.623Z,28.87
2019-02-19T17:31:06.648Z,26.73
2019-02-19T17:36:23.528Z,22.67
2019-02-19T17:41:49.000Z,23.97
2019-02-19T17:47:07.986Z,23.67
2019-02-19T17:52:30.682Z,23.53
2019-02-19T17:57:54.888Z,25.83
2019-02-19T18:03:24.821Z,25.43
2019-02-19T18:08:43.921Z,25.47
2019-02-19T18:14:08.284Z,25.90
2019-02-19T18:19:13.920Z,24.43
2019-02-19T18:24:19.544Z,24.07
2019-02-19T18:29:25.022Z,24.57
2019-02-19T18:34:30.550Z,24.03
2019-02-19T18:39:37.175Z,30.00
2019-02-19T18:44:42.863Z,26.87
2019-02-19T18:49:48.474Z,26.60
2019-02-19T18:54:55.315Z,25.67
2019-02-19T19:00:00.658Z,26.47
2019-02-19T19:05:06.489Z,28.93
2019-02-19T19:10:16.912Z,29.47
2019-02-19T19:15:22.316Z,25.70
2019-02-19T19:20:27.965Z,26.10
2019-02-19T19:25:33.502Z,25.47
2019-02-19T19:30:38.945Z,23.63
2019-02-19T19:35:46.138Z,24.90
2019-02-19T19:40:51.676Z,27.30
2019-02-19T19:45:56.942Z,27.47
2019-02-19T19:51:03.412Z,28.30
2019-02-19T19:56:21.912Z,24.97
2019-02-19T20:01:37.113Z,27.70
2019-02-19T20:06:43.682Z,25.93
2019-02-19T20:11:49.030Z,24.07
2019-02-19T20:16:55.080Z,22.87
2019-02-19T20:22:00.460Z,26.00
2019-02-19T20:27:09.716Z,26.37
2019-02-19T20:32:14.936Z,24.73
2019-02-19T20:37:24.020Z,24.70
2019-02-19T20:42:30.354Z,27.80
2019-02-19T20:47:39.504Z,32.00
2019-02-19T20:52:46.942Z,28.70
2019-02-19T20:57:59.559Z,29.20
2019-02-19T21:03:06.056Z,30.63
2019-02-19T21:08:13.330Z,32.43
2019-02-19T21:13:19.114Z,34.30
2019-02-19T21:18:24.517Z,34.27
2019-02-19T21:23:32.479Z,40.13
2019-02-19T21:28:37.900Z,38.63
2019-02-19T21:33:44.790Z,40.10
2019-02-19T21:38:53.384Z,46.47
2019-02-19T21:44:01.939Z,42.90
2019-02-19T21:49:13.664Z,41.03
2019-02-19T21:54:21.034Z,41.10
2019-02-19T21:59:26.547Z,42.50
2019-02-19T22:04:32.706Z,37.03
2019-02-19T22:09:38.263Z,41.37
2019-02-19T22:14:45.588Z,44.30
2019-02-19T22:19:51.446Z,43.47
2019-02-19T22:25:00.299Z,43.17
2019-02-19T22:30:05.964Z,42.67
2019-02-19T22:35:16.926Z,46.63
2019-02-19T22:40:24.660Z,51.00
2019-02-19T22:45:29.822Z,47.03
2019-02-19T22:50:38.425Z,49.03
2019-02-19T22:56:06.112Z,49.00
2019-02-19T23:01:29.871Z,49.50
2019-02-19T23:06:35.512Z,55.17
2019-02-19T23:11:40.560Z,47.27
2019-02-19T23:16:46.538Z,43.80
2019-02-19T23:21:51.618Z,45.03
2019-02-19T23:26:58.723Z,48.97
2019-02-19T23:32:03.874Z,48.93
2019-02-19T23:37:15.480Z,42.13
2019-02-19T23:42:20.510Z,42.50
2019-02-19T23:47:25.580Z,40.53
2019-02-19T23:52:30.884Z,40.90
2019-02-19T23:57:36.244Z,40.50
